Time;durP1;ratioP1;P1;durP2;ratioP2;P2;SDS_P1;SDS_P2;PMS_P1;PMS_P2;Temp;Humidity;BMP_temperature;BMP_pressure;BME280_temperature;BME280_humidity;BME280_pressure;Samples;Min_cycle;Max_cycle;Signal;HPM_P1;HPM_P2
2021/05/20 00:02:04;;;;;;;1.42;0.57;;;;;;;13.12;76.51;99293.20;1740179;81;21135;-67
2021/05/20 00:04:30;;;;;;;2.90;0.60;;;;;;;13.09;76.67;99279.00;1740701;80;21084;-66
2021/05/20 00:06:58;;;;;;;1.37;0.50;;;;;;;13.12;76.34;99284.46;1724244;81;21543;-68
2021/05/20 00:09:25;;;;;;;1.95;0.60;;;;;;;13.16;76.26;99281.33;1744139;80;21085;-71
2021/05/20 00:11:51;;;;;;;1.47;0.55;;;;;;;13.18;76.41;99289.91;1740544;81;21124;-67
2021/05/20 00:14:17;;;;;;;0.55;0.25;;;;;;;13.19;76.55;99280.97;1716450;81;21109;-66
2021/05/20 00:16:45;;;;;;;1.52;0.42;;;;;;;13.16;76.45;99286.61;1736831;80;21666;-69
2021/05/20 00:19:12;;;;;;;1.00;0.30;;;;;;;13.10;76.71;99291.73;1744579;80;21030;-66
2021/05/20 00:21:39;;;;;;;1.07;0.33;;;;;;;13.11;76.65;99284.97;1717987;81;21057;-66
2021/05/20 00:24:09;;;;;;;1.92;0.50;;;;;;;13.18;76.52;99287.77;1741135;80;21044;-70
2021/05/20 00:26:37;;;;;;;0.68;0.20;;;;;;;13.23;76.26;99289.89;1742424;80;21373;-66
2021/05/20 00:29:03;;;;;;;2.40;0.68;;;;;;;13.24;76.20;99290.23;1703009;82;21139;-70
2021/05/20 00:31:30;;;;;;;0.90;0.20;;;;;;;13.21;76.15;99283.45;1743230;80;21036;-67
2021/05/20 00:33:56;;;;;;;2.60;0.37;;;;;;;13.16;76.12;99283.97;1715825;81;21422;-66
2021/05/20 00:36:22;;;;;;;0.90;0.30;;;;;;;13.14;76.33;99289.89;1748413;81;21052;-68
2021/05/20 00:38:49;;;;;;;1.15;0.30;;;;;;;13.17;76.33;99296.17;1708766;82;21645;-65
2021/05/20 00:41:15;;;;;;;1.15;0.30;;;;;;;13.16;76.20;99288.41;1752198;81;21079;-65
2021/05/20 00:43:41;;;;;;;1.30;0.40;;;;;;;13.14;76.28;99297.00;1747924;81;21567;-65
2021/05/20 00:46:08;;;;;;;1.30;0.53;;;;;;;13.08;76.32;99294.53;1747327;81;21066;-66
2021/05/20 00:48:35;;;;;;;1.90;0.50;;;;;;;13.01;76.34;99294.84;1737575;81;21061;-67
2021/05/20 00:51:01;;;;;;;2.27;0.30;;;;;;;12.99;76.56;99288.91;1747685;81;21088;-67
2021/05/20 00:53:27;;;;;;;2.25;0.72;;;;;;;13.03;76.54;99291.57;1714226;82;21116;-67
2021/05/20 00:55:54;;;;;;;1.62;0.57;;;;;;;13.06;76.50;99299.64;1741325;81;21084;-67
2021/05/20 00:58:20;;;;;;;2.42;0.72;;;;;;;13.06;76.19;99295.67;1745052;81;21590;-67
2021/05/20 01:00:54;;;;;;;1.95;0.60;;;;;;;13.06;76.22;99286.44;1710594;81;21241;-69
2021/05/20 01:03:22;;;;;;;1.85;0.57;;;;;;;13.04;76.18;99291.06;1750279;81;21097;-64
2021/05/20 01:05:50;;;;;;;1.82;0.65;;;;;;;12.99;75.94;99293.72;1710452;82;21152;-65
2021/05/20 01:08:18;;;;;;;3.47;0.50;;;;;;;12.95;75.75;99295.53;1727105;81;21112;-69
2021/05/20 01:10:44;;;;;;;4.00;0.90;;;;;;;12.95;75.78;99303.45;1724605;81;21608;-69
2021/05/20 01:13:11;;;;;;;2.65;0.70;;;;;;;12.94;75.85;99296.50;1746707;81;21131;-65
2021/05/20 01:15:38;;;;;;;3.65;0.55;;;;;;;12.91;76.07;99286.27;1716870;81;21141;-68
2021/05/20 01:18:05;;;;;;;2.62;0.90;;;;;;;12.82;75.86;99287.58;1712265;81;21131;-65
2021/05/20 01:20:40;;;;;;;1.60;0.53;;;;;;;12.73;76.10;99299.14;1745006;81;21053;-68
2021/05/20 01:23:16;;;;;;;2.67;0.82;;;;;;;12.71;76.24;99297.16;1744463;81;21071;-65
2021/05/20 01:25:49;;;;;;;4.17;0.80;;;;;;;12.71;76.18;99287.92;1704019;82;21077;-67
2021/05/20 01:28:22;;;;;;;2.12;0.55;;;;;;;12.71;76.27;99285.28;1708062;82;21167;-67
2021/05/20 01:30:50;;;;;;;5.00;0.90;;;;;;;12.72;76.60;99282.95;1704512;82;21139;-67
2021/05/20 01:33:17;;;;;;;1.72;0.55;;;;;;;12.69;76.55;99287.23;1745686;81;21076;-66
2021/05/20 01:35:46;;;;;;;2.02;0.70;;;;;;;12.68;76.51;99282.16;1753541;80;21169;-64
2021/05/20 01:41:07;;;;;;;1.85;0.62;;;;;;;12.78;76.26;99289.41;1754207;80;21655;-66
2021/05/20 01:43:34;;;;;;;3.52;0.90;;;;;;;12.80;76.15;99288.25;1755321;80;21073;-67
2021/05/20 01:46:01;;;;;;;2.27;0.90;;;;;;;12.80;76.11;99291.39;1759090;80;21049;-66
2021/05/20 01:48:31;;;;;;;2.90;0.80;;;;;;;12.75;76.33;99285.27;1733907;80;21053;-68
2021/05/20 01:51:10;;;;;;;2.20;0.80;;;;;;;12.71;76.35;99286.61;1748028;80;21732;-67
2021/05/20 01:53:42;;;;;;;2.65;0.80;;;;;;;12.69;76.29;99284.59;1756879;80;21108;-65
2021/05/20 01:56:08;;;;;;;2.83;0.88;;;;;;;12.75;76.11;99284.45;1758883;80;21602;-67
2021/05/20 01:58:36;;;;;;;2.83;0.88;;;;;;;12.78;75.80;99281.50;1763325;79;21073;-67
2021/05/20 02:01:04;;;;;;;2.05;0.68;;;;;;;12.79;75.91;99281.81;1760935;79;21054;-65
2021/05/20 02:03:31;;;;;;;2.40;0.93;;;;;;;12.75;75.66;99287.09;1763887;80;21056;-68
2021/05/20 02:05:58;;;;;;;2.45;0.95;;;;;;;12.71;75.85;99289.24;1758268;80;22474;-65
2021/05/20 02:08:25;;;;;;;2.95;0.80;;;;;;;12.72;75.61;99277.67;1762023;80;21120;-65
2021/05/20 02:10:53;;;;;;;3.27;0.88;;;;;;;12.79;75.49;99282.66;1719245;81;21022;-65
2021/05/20 02:13:20;;;;;;;2.62;0.85;;;;;;;12.85;75.12;99277.20;1757823;80;21031;-65
2021/05/20 02:15:47;;;;;;;5.40;1.10;;;;;;;12.85;74.97;99283.80;1736105;80;21045;-71
2021/05/20 02:18:14;;;;;;;4.37;1.00;;;;;;;12.81;75.15;99283.31;1745028;80;21042;-67
2021/05/20 02:20:40;;;;;;;6.42;1.42;;;;;;;12.78;75.01;99287.59;1762862;79;21621;-67
2021/05/20 02:23:07;;;;;;;3.08;1.07;;;;;;;12.75;75.05;99292.37;1755532;80;21041;-67
2021/05/20 02:25:33;;;;;;;2.80;1.00;;;;;;;12.77;74.57;99295.17;1758485;80;21120;-66
2021/05/20 02:28:00;;;;;;;3.30;1.02;;;;;;;12.79;74.67;99285.30;1762566;80;21649;-66
2021/05/20 02:30:26;;;;;;;3.20;1.22;;;;;;;12.81;74.41;99281.17;1740606;80;21433;-67
2021/05/20 02:32:52;;;;;;;3.80;1.17;;;;;;;12.78;74.45;99289.41;1743492;80;21099;-66
2021/05/20 02:35:19;;;;;;;3.60;1.15;;;;;;;12.73;74.39;99287.26;1763460;80;21047;-67
2021/05/20 02:37:47;;;;;;;4.12;1.10;;;;;;;12.73;74.46;99287.77;1731791;82;21097;-71
2021/05/20 02:40:13;;;;;;;2.72;1.07;;;;;;;12.80;74.36;99293.52;1744843;80;21100;-65
2021/05/20 02:42:40;;;;;;;3.62;1.27;;;;;;;12.86;74.27;99284.62;1741281;80;21712;-66
2021/05/20 02:45:18;;;;;;;6.03;1.57;;;;;;;12.89;73.88;99290.89;1761303;79;21104;-65
2021/05/20 02:47:48;;;;;;;3.92;1.47;;;;;;;12.87;73.74;99284.96;1755785;80;21555;-66
2021/05/20 02:50:16;;;;;;;2.33;0.93;;;;;;;12.81;73.81;99285.95;1762835;80;21025;-66
2021/05/20 02:52:44;;;;;;;2.98;1.20;;;;;;;12.81;73.82;99290.41;1769605;80;21708;-67
2021/05/20 02:55:22;;;;;;;3.27;1.05;;;;;;;12.86;73.74;99281.98;1774240;79;21146;-66
2021/05/20 02:57:53;;;;;;;2.72;1.07;;;;;;;12.89;73.39;99292.22;1735513;81;21065;-66
2021/05/20 03:00:20;;;;;;;4.30;1.22;;;;;;;12.85;72.99;99287.77;1745244;80;21053;-69
2021/05/20 03:02:48;;;;;;;4.42;1.15;;;;;;;12.81;73.38;99281.98;1737740;80;21150;-68
2021/05/20 03:05:15;;;;;;;3.12;0.80;;;;;;;12.77;73.37;99278.02;1778746;80;22309;-66
2021/05/20 03:07:42;;;;;;;4.45;1.07;;;;;;;12.78;73.37;99279.67;1734837;80;21103;-65
2021/05/20 03:10:09;;;;;;;3.12;0.95;;;;;;;12.87;72.94;99284.96;1744004;80;21058;-66
2021/05/20 03:12:38;;;;;;;7.87;1.10;;;;;;;12.89;72.73;99282.47;1768504;79;21041;-66
2021/05/20 03:15:08;;;;;;;3.02;1.20;;;;;;;12.92;72.50;99287.93;1737806;80;21063;-65
2021/05/20 03:17:34;;;;;;;3.08;1.12;;;;;;;12.88;72.16;99276.87;1773961;79;21132;-66
2021/05/20 03:20:04;;;;;;;3.02;1.02;;;;;;;12.83;72.46;99289.75;1768898;80;21104;-67
2021/05/20 03:22:30;;;;;;;3.00;0.82;;;;;;;12.78;72.57;99281.50;1709659;82;21144;-66
2021/05/20 03:24:57;;;;;;;2.67;0.90;;;;;;;12.83;72.63;99290.56;1734930;79;22153;-73
2021/05/20 03:27:23;;;;;;;5.58;1.87;;;;;;;12.87;72.09;99289.73;1765556;79;21045;-69
2021/05/20 03:29:50;;;;;;;3.12;1.10;;;;;;;12.88;71.96;99287.91;1770618;79;21067;-69
2021/05/20 03:32:16;;;;;;;3.08;0.90;;;;;;;12.85;71.92;99294.36;1774709;79;21094;-65
2021/05/20 03:34:43;;;;;;;3.00;1.00;;;;;;;12.80;72.03;99286.92;1767702;80;21069;-66
2021/05/20 03:37:09;;;;;;;5.70;1.17;;;;;;;12.81;71.89;99286.45;1754916;80;21018;-65
2021/05/20 03:39:36;;;;;;;4.17;1.07;;;;;;;12.91;71.98;99284.95;1762043;80;21647;-64
2021/05/20 03:42:03;;;;;;;3.40;1.02;;;;;;;13.01;71.55;99281.17;1763839;80;21108;-64
2021/05/20 03:44:30;;;;;;;3.87;1.22;;;;;;;13.05;71.18;99288.77;1736966;80;22290;-65
2021/05/20 03:46:58;;;;;;;2.42;0.80;;;;;;;13.03;70.97;99290.72;1748927;80;21686;-69
2021/05/20 03:49:25;;;;;;;4.92;1.30;;;;;;;12.98;70.83;99287.28;1760649;79;21069;-66
2021/05/20 03:51:51;;;;;;;3.02;1.00;;;;;;;12.95;71.33;99295.02;1741819;80;21096;-66
2021/05/20 03:54:18;;;;;;;1.95;0.78;;;;;;;12.97;70.99;99298.31;1764128;79;21069;-72
2021/05/20 03:56:45;;;;;;;2.47;0.78;;;;;;;13.03;70.88;99294.69;1740530;80;21155;-65
2021/05/20 03:59:11;;;;;;;5.28;1.07;;;;;;;13.08;70.71;99305.09;1755878;80;21659;-64
2021/05/20 04:01:40;;;;;;;2.98;1.07;;;;;;;13.10;70.50;99303.62;1742907;80;21168;-65
2021/05/20 04:04:07;;;;;;;2.80;1.00;;;;;;;13.08;69.90;99305.09;1739756;80;21061;-64
2021/05/20 04:06:33;;;;;;;3.12;1.00;;;;;;;13.07;69.87;99303.44;1764539;80;21124;-64
2021/05/20 04:09:00;;;;;;;1.98;0.57;;;;;;;13.08;70.07;99306.89;1760912;80;21148;-68
2021/05/20 04:11:28;;;;;;;2.25;0.80;;;;;;;13.13;69.86;99309.86;1760197;79;21164;-71
2021/05/20 04:13:55;;;;;;;3.05;0.93;;;;;;;13.19;69.48;99300.78;1734890;80;21483;-66
2021/05/20 04:16:25;;;;;;;2.62;0.88;;;;;;;13.26;69.65;99307.55;1757880;80;21080;-68
2021/05/20 04:18:50;;;;;;;3.25;1.02;;;;;;;13.26;69.70;99309.38;1766416;80;21085;-70
2021/05/20 04:21:16;;;;;;;2.72;1.00;;;;;;;13.25;69.74;99307.23;1760942;80;22317;-65
2021/05/20 04:23:45;;;;;;;3.20;1.17;;;;;;;13.27;69.75;99317.13;1759125;79;21227;-66
2021/05/20 04:26:11;;;;;;;3.27;1.22;;;;;;;13.30;69.67;99321.27;1703463;82;21113;-67
2021/05/20 04:28:39;;;;;;;2.77;1.07;;;;;;;13.35;69.47;99315.02;1763270;79;21073;-67
2021/05/20 04:31:05;;;;;;;2.90;1.05;;;;;;;13.38;69.67;99318.16;1763073;80;21531;-68
2021/05/20 04:33:31;;;;;;;7.75;2.35;;;;;;;13.40;69.50;99324.59;1760077;80;22429;-70
2021/05/20 04:35:58;;;;;;;2.95;0.88;;;;;;;13.39;69.65;99316.33;1722730;81;21102;-69
2021/05/20 04:38:24;;;;;;;3.77;1.35;;;;;;;13.36;69.51;99325.43;1661574;84;21123;-67
2021/05/20 04:40:50;;;;;;;9.18;2.92;;;;;;;13.36;69.44;99324.58;1731709;80;21719;-70
2021/05/20 04:43:17;;;;;;;3.67;1.30;;;;;;;13.41;69.40;99321.45;1733527;80;21127;-72
2021/05/20 04:45:44;;;;;;;5.35;1.02;;;;;;;13.45;69.03;99330.20;1763213;79;22678;-71
2021/05/20 04:50:15;;;;;;;3.02;1.00;;;;;;;13.43;68.86;99326.06;1872945;74;22692;-69
2021/05/20 04:52:42;;;;;;;2.60;1.02;;;;;;;13.32;68.94;99340.45;1844727;75;20980;-65
2021/05/20 04:55:10;;;;;;;3.37;1.10;;;;;;;13.26;68.87;99331.83;1851201;75;21058;-70
2021/05/20 04:57:36;;;;;;;4.20;0.88;;;;;;;13.18;69.46;99345.37;1803244;77;21629;-65
2021/05/20 05:00:05;;;;;;;4.28;0.88;;;;;;;13.18;69.32;99344.05;1803401;77;20992;-68
2021/05/20 05:02:32;;;;;;;5.12;1.20;;;;;;;13.23;69.42;99342.25;1781223;78;21002;-66
2021/05/20 05:04:58;;;;;;;2.65;1.00;;;;;;;13.26;69.28;99346.36;1763987;78;21066;-69
2021/05/20 05:07:25;;;;;;;4.87;1.25;;;;;;;13.23;69.11;99343.56;1805852;77;21083;-67
2021/05/20 05:09:51;;;;;;;2.35;0.80;;;;;;;13.25;69.18;99350.83;1800654;77;20981;-67
2021/05/20 05:12:18;;;;;;;7.17;1.27;;;;;;;13.30;68.76;99347.69;1760337;78;21579;-67
2021/05/20 05:14:44;;;;;;;5.72;0.90;;;;;;;13.36;68.56;99350.53;1786815;78;20992;-68
2021/05/20 05:17:11;;;;;;;4.03;1.37;;;;;;;13.50;68.54;99347.70;1786220;78;20978;-68
2021/05/20 05:19:37;;;;;;;3.70;1.00;;;;;;;13.63;68.17;99364.86;1782795;78;21023;-67
2021/05/20 05:22:04;;;;;;;2.27;0.72;;;;;;;13.68;67.90;99344.84;1810183;77;20962;-68
2021/05/20 05:24:31;;;;;;;3.27;1.22;;;;;;;13.75;67.65;99350.28;1795060;77;21147;-68
2021/05/20 05:26:58;;;;;;;2.60;0.90;;;;;;;13.79;67.73;99343.68;1786984;78;21115;-66
2021/05/20 05:29:24;;;;;;;3.10;1.00;;;;;;;13.93;67.36;99356.69;1773418;79;21571;-67
2021/05/20 05:31:51;;;;;;;3.65;1.22;;;;;;;14.09;67.09;99361.13;1770674;80;21124;-71
2021/05/20 05:34:17;;;;;;;3.12;1.00;;;;;;;14.22;66.56;99369.34;1765245;79;21111;-71
2021/05/20 05:36:45;;;;;;;3.10;1.10;;;;;;;14.28;66.22;99356.73;1767955;80;21650;-69
2021/05/20 05:39:12;;;;;;;3.40;1.00;;;;;;;14.35;64.87;99358.19;1764997;80;21028;-72
2021/05/20 05:41:38;;;;;;;2.12;0.90;;;;;;;14.42;64.61;99370.23;1761444;80;21076;-70
2021/05/20 05:44:06;;;;;;;3.40;1.00;;;;;;;14.47;64.77;99371.86;1775726;78;21184;-71
2021/05/20 05:46:33;;;;;;;3.15;1.20;;;;;;;14.51;63.98;99387.74;1773443;78;22275;-69
2021/05/20 05:49:11;;;;;;;3.67;0.98;;;;;;;14.59;64.31;99377.15;1772337;79;21017;-73
2021/05/20 05:51:31;;;;;;;3.42;1.05;;;;;;;14.72;63.69;99369.94;1779125;80;20905;-69
2021/05/20 05:53:57;;;;;;;3.37;1.25;;;;;;;14.84;63.76;99373.02;1763091;80;21013;-68
2021/05/20 05:56:24;;;;;;;3.90;1.02;;;;;;;14.91;62.85;99375.31;1762715;80;21163;-72
2021/05/20 05:58:50;;;;;;;4.60;1.17;;;;;;;14.94;62.46;99366.17;1803104;79;21031;-68
2021/05/20 06:01:17;;;;;;;2.50;0.82;;;;;;;14.93;63.27;99375.95;1795699;79;21396;-71
2021/05/20 06:03:43;;;;;;;4.78;1.30;;;;;;;14.95;62.40;99384.54;1766485;80;20985;-69
2021/05/20 06:06:10;;;;;;;3.72;1.17;;;;;;;14.94;61.80;99379.42;1761757;80;21047;-69
2021/05/20 06:08:37;;;;;;;2.65;0.98;;;;;;;14.93;61.72;99386.55;1720497;80;22747;-69
2021/05/20 06:11:03;;;;;;;7.60;1.22;;;;;;;14.89;62.22;99384.41;1730866;80;20996;-69
2021/05/20 06:13:31;;;;;;;5.05;1.52;;;;;;;14.93;62.23;99378.60;1794908;79;20894;-69
2021/05/20 06:15:58;;;;;;;3.70;1.20;;;;;;;15.02;62.19;99388.12;1798336;78;21235;-68
2021/05/20 06:18:24;;;;;;;3.20;1.10;;;;;;;15.07;62.27;99388.93;1788901;79;21080;-67
2021/05/20 06:20:51;;;;;;;4.45;1.10;;;;;;;15.17;62.41;99397.98;1796856;78;21160;-68
2021/05/20 06:23:17;;;;;;;6.58;1.40;;;;;;;15.24;61.48;99393.61;1789744;79;21598;-69
2021/05/20 06:25:45;;;;;;;2.67;0.95;;;;;;;15.32;60.63;99401.50;1755475;79;21099;-70
2021/05/20 06:28:12;;;;;;;3.55;1.20;;;;;;;15.39;59.27;99409.56;1800532;78;21595;-68
2021/05/20 06:30:38;;;;;;;2.42;0.80;;;;;;;15.41;60.01;99409.70;1774011;79;21065;-66
2021/05/20 06:33:05;;;;;;;6.05;1.40;;;;;;;15.49;60.72;99406.68;1762174;80;21830;-65
2021/05/20 06:35:32;;;;;;;3.08;1.12;;;;;;;15.56;60.50;99416.88;1774324;79;21143;-66
2021/05/20 06:37:59;;;;;;;3.15;0.90;;;;;;;15.63;59.12;99418.31;1757001;80;21089;-70
2021/05/20 06:40:26;;;;;;;3.30;1.20;;;;;;;15.70;59.71;99424.06;1767787;78;21753;-70
2021/05/20 06:42:52;;;;;;;2.85;0.95;;;;;;;15.72;59.55;99424.70;1779442;80;21103;-68
2021/05/20 06:45:19;;;;;;;2.75;1.00;;;;;;;15.68;59.40;99430.53;1774683;79;21081;-69
2021/05/20 06:47:45;;;;;;;3.27;1.20;;;;;;;15.62;59.88;99433.41;1792707;78;21446;-68
2021/05/20 06:50:12;;;;;;;4.45;1.10;;;;;;;15.58;58.95;99457.29;1780425;78;21079;-72
2021/05/20 06:52:39;;;;;;;4.47;1.50;;;;;;;15.55;59.47;99454.99;1780251;79;21702;-69
2021/05/20 06:55:06;;;;;;;5.42;1.35;;;;;;;15.54;60.05;99444.08;1785942;79;20961;-73
2021/05/20 07:00:18;;;;;;;2.42;0.70;;;;;;;15.57;58.73;99447.20;1810026;77;21582;-68
2021/05/20 07:02:46;;;;;;;2.22;0.80;;;;;;;15.58;58.56;99448.86;1839410;77;21067;-66
2021/05/20 07:05:13;;;;;;;3.22;1.27;;;;;;;15.60;58.41;99451.30;1811714;77;21099;-73
2021/05/20 07:07:39;;;;;;;3.95;1.10;;;;;;;15.65;58.68;99450.30;1843529;77;21711;-73
2021/05/20 07:10:07;;;;;;;3.30;1.12;;;;;;;15.71;58.67;99445.58;1847478;77;21062;-73
2021/05/20 07:12:35;;;;;;;3.20;1.00;;;;;;;15.81;58.50;99443.23;1776129;80;21040;-74
2021/05/20 07:15:02;;;;;;;4.10;1.02;;;;;;;15.90;58.53;99447.44;1790821;79;21099;-73
2021/05/20 07:17:31;;;;;;;6.08;1.05;;;;;;;16.00;57.58;99436.06;1788854;78;21064;-73
2021/05/20 07:19:57;;;;;;;6.08;1.70;;;;;;;16.07;57.23;99460.89;1746337;80;21090;-72
2021/05/20 07:22:24;;;;;;;2.95;1.15;;;;;;;16.10;56.72;99443.25;1785034;79;21110;-73
2021/05/20 07:24:51;;;;;;;6.62;1.42;;;;;;;16.14;57.54;99448.53;1782195;79;22530;-70
2021/05/20 07:27:18;;;;;;;5.40;1.37;;;;;;;16.15;57.02;99444.88;1778613;79;21357;-71
2021/05/20 07:29:44;;;;;;;4.28;1.45;;;;;;;16.14;56.57;99455.68;1783574;79;21085;-72
2021/05/20 07:32:18;;;;;;;3.08;1.15;;;;;;;16.11;57.41;99440.92;1758681;79;21084;-70
2021/05/20 07:34:40;;;;;;;2.42;1.10;;;;;;;16.11;56.70;99442.25;1799138;78;21085;-70
2021/05/20 07:37:07;;;;;;;3.58;1.00;;;;;;;16.09;56.83;99445.59;1780853;79;21087;-68
2021/05/20 07:39:34;;;;;;;2.47;0.75;;;;;;;16.08;56.72;99461.19;1792148;79;21696;-71
2021/05/20 07:42:00;;;;;;;3.92;1.20;;;;;;;16.04;56.51;99454.61;1786130;78;21053;-72
2021/05/20 07:44:27;;;;;;;3.20;1.10;;;;;;;16.02;56.80;99455.30;1791209;79;21028;-71
2021/05/20 07:46:55;;;;;;;5.10;1.50;;;;;;;16.01;57.28;99452.83;1754819;80;21108;-70
2021/05/20 07:49:21;;;;;;;4.47;1.27;;;;;;;15.99;57.59;99453.00;1771924;79;21163;-70
2021/05/20 07:51:47;;;;;;;3.22;1.00;;;;;;;15.97;57.68;99450.53;1763388;79;22213;-72
2021/05/20 07:54:14;;;;;;;3.02;1.20;;;;;;;15.98;57.05;99472.56;1787607;78;21038;-71
2021/05/20 07:56:43;;;;;;;5.20;1.37;;;;;;;15.97;56.96;99457.67;1783851;78;21046;-71
2021/05/20 07:59:08;;;;;;;3.35;1.27;;;;;;;15.96;57.41;99458.16;1805859;77;21077;-73
2021/05/20 08:01:36;;;;;;;4.70;1.50;;;;;;;16.00;57.40;99471.88;1813345;78;21456;-72
2021/05/20 08:04:12;;;;;;;4.47;1.20;;;;;;;16.01;56.94;99474.86;1811090;77;20966;-73
2021/05/20 08:06:41;;;;;;;3.33;1.27;;;;;;;16.01;56.94;99488.13;1776897;78;21046;-72
2021/05/20 08:09:49;;;;;;;3.17;1.20;;;;;;;16.00;57.16;99481.16;1819758;77;20946;-71
2021/05/20 08:11:37;;;;;;;3.47;1.30;;;;;;;16.01;57.63;99482.02;1802171;77;21107;-74
2021/05/20 08:14:04;;;;;;;3.15;1.00;;;;;;;16.01;57.24;99501.40;1818082;78;21409;-72
2021/05/20 08:16:30;;;;;;;3.10;1.22;;;;;;;16.00;56.89;99509.02;1817129;78;21104;-69
2021/05/20 08:18:57;;;;;;;3.75;1.50;;;;;;;16.00;57.14;99505.05;1817488;77;21551;-67
2021/05/20 08:21:23;;;;;;;4.00;1.60;;;;;;;15.97;56.78;99526.14;1789077;78;20984;-69
2021/05/20 08:23:50;;;;;;;4.45;1.27;;;;;;;15.97;56.92;99514.20;1764610;79;21076;-65
2021/05/20 08:26:19;;;;;;;3.25;1.17;;;;;;;15.95;55.79;99521.53;1767668;79;20943;-66
2021/05/20 08:28:46;;;;;;;3.85;1.50;;;;;;;15.97;55.87;99519.51;1733661;80;21625;-68
2021/05/20 09:07:33;;;;;;;6.05;1.70;;;;;;;15.85;57.76;99520.10;1815244;78;21757;-68
2021/05/20 09:10:12;;;;;;;4.10;1.25;;;;;;;15.90;57.77;99519.91;1805243;78;21136;-66
2021/05/20 09:12:39;;;;;;;4.78;1.42;;;;;;;16.00;57.76;99527.59;1805062;78;21037;-67
2021/05/20 09:15:20;;;;;;;4.35;1.67;;;;;;;16.13;57.72;99529.66;1790425;78;21097;-66
2021/05/20 09:17:48;;;;;;;5.45;1.62;;;;;;;16.28;58.28;99534.48;1809028;78;21055;-69
2021/05/20 09:20:14;;;;;;;3.17;1.37;;;;;;;16.49;55.91;99525.83;1787654;78;21547;-67
2021/05/20 09:22:41;;;;;;;6.92;1.65;;;;;;;16.67;56.33;99517.98;1788663;78;21071;-67
2021/05/20 09:25:09;;;;;;;3.25;1.40;;;;;;;16.89;56.21;99514.44;1795062;78;21068;-69
2021/05/20 09:27:43;;;;;;;4.67;1.65;;;;;;;17.12;54.22;99525.95;1794113;78;21067;-70
2021/05/20 09:30:20;;;;;;;4.97;1.60;;;;;;;17.19;54.10;99535.63;1805251;78;21343;-71
2021/05/20 09:32:59;;;;;;;4.17;1.32;;;;;;;17.20;53.53;99527.98;1788301;78;22261;-68
2021/05/20 09:35:32;;;;;;;4.28;1.20;;;;;;;17.14;53.85;99551.32;1790415;78;21069;-68
2021/05/20 09:38:05;;;;;;;5.28;1.47;;;;;;;17.09;53.82;99549.72;1790454;78;21081;-66
2021/05/20 09:40:37;;;;;;;4.08;1.35;;;;;;;17.01;52.88;99555.14;1815065;78;21133;-64
2021/05/20 09:43:17;;;;;;;5.47;1.30;;;;;;;16.96;52.96;99553.03;1793712;77;21144;-68
2021/05/20 09:45:46;;;;;;;3.87;1.22;;;;;;;16.96;53.40;99550.88;1787094;78;22424;-66
2021/05/20 09:48:13;;;;;;;3.70;1.72;;;;;;;16.99;52.82;99549.19;1810455;77;21605;-65
2021/05/20 09:50:48;;;;;;;4.15;1.65;;;;;;;17.07;52.10;99573.02;1805063;78;21079;-67
2021/05/20 09:53:18;;;;;;;4.20;1.55;;;;;;;17.17;52.77;99554.13;1793455;78;22327;-65
2021/05/20 09:55:47;;;;;;;3.87;1.47;;;;;;;17.34;51.58;99543.58;1808771;77;21074;-67
2021/05/20 09:58:14;;;;;;;3.33;1.30;;;;;;;17.53;51.05;99527.51;1820906;78;21049;-69
2021/05/20 10:00:41;;;;;;;4.12;2.20;;;;;;;17.67;51.96;99528.48;1809272;77;21053;-65
2021/05/20 10:03:14;;;;;;;4.22;1.37;;;;;;;17.77;51.60;99540.12;1813719;78;21894;-66
2021/05/20 10:05:46;;;;;;;4.20;1.67;;;;;;;17.78;50.87;99545.77;1809223;77;21088;-68
2021/05/20 10:08:18;;;;;;;4.05;1.42;;;;;;;17.79;51.32;99541.59;1791619;77;21409;-69
2021/05/20 10:10:50;;;;;;;3.05;1.05;;;;;;;17.85;51.23;99534.67;1808395;77;21062;-66
2021/05/20 10:13:27;;;;;;;3.33;1.32;;;;;;;17.98;50.01;99549.46;1807096;78;21085;-67
2021/05/20 10:15:57;;;;;;;4.95;1.45;;;;;;;18.09;48.96;99547.29;1799924;77;21041;-68
2021/05/20 10:18:26;;;;;;;2.90;1.00;;;;;;;18.14;48.87;99562.17;1806995;78;21053;-69
2021/05/20 10:21:04;;;;;;;3.25;0.88;;;;;;;18.13;46.96;99540.58;1787386;78;21053;-66
2021/05/20 10:23:30;;;;;;;5.22;1.40;;;;;;;18.08;47.59;99546.99;1805687;78;21063;-68
2021/05/20 10:25:59;;;;;;;5.33;1.30;;;;;;;18.00;47.87;99552.78;1808212;78;21076;-68
2021/05/20 10:28:25;;;;;;;3.60;1.10;;;;;;;17.95;47.71;99552.50;1810293;78;21547;-67
2021/05/20 10:30:54;;;;;;;2.72;0.98;;;;;;;17.94;47.42;99556.19;1807899;78;21089;-66
2021/05/20 10:33:28;;;;;;;2.40;0.80;;;;;;;17.98;48.05;99561.95;1820212;77;21602;-69
2021/05/20 10:35:57;;;;;;;3.72;1.30;;;;;;;18.11;48.35;99572.72;1820748;77;21058;-73
2021/05/20 10:38:35;;;;;;;3.72;1.37;;;;;;;18.24;47.76;99577.83;1810788;78;21654;-67
2021/05/20 10:41:18;;;;;;;6.75;1.75;;;;;;;18.31;47.80;99570.73;1808758;78;21041;-69
2021/05/20 10:43:51;;;;;;;2.98;0.98;;;;;;;18.34;47.29;99579.16;1809112;77;21077;-68
2021/05/20 10:46:19;;;;;;;3.45;1.05;;;;;;;18.29;47.15;99583.40;1792362;78;21898;-66
2021/05/20 10:48:54;;;;;;;3.37;1.12;;;;;;;18.19;47.01;99585.08;1821635;77;20986;-69
2021/05/20 10:51:29;;;;;;;2.35;0.98;;;;;;;18.09;47.74;99586.73;1776527;79;21080;-69
2021/05/20 10:54:06;;;;;;;2.95;1.17;;;;;;;18.02;47.99;99576.52;1817571;78;20878;-66
2021/05/20 10:56:47;;;;;;;3.62;1.22;;;;;;;17.98;47.87;99589.38;1814105;78;21001;-69
2021/05/20 10:59:35;;;;;;;3.98;1.07;;;;;;;17.92;47.84;99584.84;1819558;78;21046;-68
2021/05/20 11:02:02;;;;;;;2.83;1.05;;;;;;;17.93;48.67;99587.80;1814203;78;21026;-68
2021/05/20 11:04:38;;;;;;;4.47;1.02;;;;;;;18.08;47.98;99588.26;1812315;78;21088;-68
2021/05/20 11:07:06;;;;;;;4.03;1.15;;;;;;;18.21;47.57;99597.69;1794745;77;21038;-66
2021/05/20 11:09:48;;;;;;;4.40;1.30;;;;;;;18.38;46.67;99592.39;1790602;77;21029;-68
2021/05/20 11:12:17;;;;;;;2.70;0.90;;;;;;;18.56;46.50;99591.92;1804672;78;21025;-68
2021/05/20 11:14:45;;;;;;;3.27;0.90;;;;;;;18.70;46.22;99588.02;1811360;78;21304;-69
2021/05/20 11:17:32;;;;;;;4.50;1.12;;;;;;;18.79;46.08;99582.83;1815612;77;21079;-68
2021/05/20 11:20:30;;;;;;;2.95;1.02;;;;;;;18.86;46.25;99580.23;1815518;77;21053;-65
2021/05/20 11:23:20;;;;;;;2.45;0.88;;;;;;;18.89;45.29;99583.32;1817583;77;21075;-69
2021/05/20 11:26:05;;;;;;;3.62;1.20;;;;;;;18.96;44.80;99588.69;1789783;77;21105;-66
2021/05/20 11:28:51;;;;;;;3.65;1.00;;;;;;;19.02;45.88;99591.91;1758055;80;21179;-68
2021/05/20 11:31:18;;;;;;;6.10;1.10;;;;;;;19.04;44.40;99587.20;1807508;77;21097;-69
2021/05/20 11:33:53;;;;;;;1.80;0.70;;;;;;;19.07;44.91;99580.14;1812357;77;21571;-68
2021/05/20 11:36:18;;;;;;;4.35;1.02;;;;;;;19.16;45.02;99577.31;1727790;80;21253;-68
2021/05/20 11:38:59;;;;;;;4.95;1.05;;;;;;;19.28;45.29;99579.71;1816361;78;21026;-68
2021/05/20 11:41:27;;;;;;;2.62;1.12;;;;;;;19.41;44.57;99584.28;1809126;78;21061;-69
2021/05/20 11:44:13;;;;;;;2.47;1.00;;;;;;;19.53;44.50;99583.19;1804718;77;21057;-70
2021/05/20 11:47:01;;;;;;;3.45;1.15;;;;;;;19.72;43.85;99585.59;1742121;78;21653;-67
2021/05/20 11:49:28;;;;;;;3.77;1.10;;;;;;;19.76;43.08;99600.23;1811858;77;21724;-72
2021/05/20 11:51:59;;;;;;;5.33;1.62;;;;;;;19.63;42.77;99587.63;1783328;77;21049;-68
2021/05/20 11:54:28;;;;;;;3.05;1.35;;;;;;;19.55;43.32;99579.31;1810393;77;21234;-69
2021/05/20 11:56:57;;;;;;;5.75;1.20;;;;;;;19.48;43.20;99595.30;1805058;77;21018;-67
2021/05/20 11:59:39;;;;;;;3.52;1.22;;;;;;;19.35;43.32;99602.41;1812554;77;21080;-67
2021/05/20 12:02:18;;;;;;;2.85;1.00;;;;;;;19.24;44.37;99589.95;1804261;78;22195;-68
2021/05/20 12:04:45;;;;;;;3.52;1.20;;;;;;;19.16;44.25;99596.79;1809520;77;21109;-67
2021/05/20 12:07:23;;;;;;;3.70;0.98;;;;;;;19.07;44.67;99599.33;1821156;77;21061;-68
2021/05/20 12:09:50;;;;;;;6.87;1.10;;;;;;;19.04;44.91;99587.20;1808251;77;21065;-67
2021/05/20 12:12:19;;;;;;;4.78;1.50;;;;;;;19.14;45.00;99586.03;1794897;77;21065;-73
2021/05/20 12:14:48;;;;;;;3.30;1.27;;;;;;;19.33;44.82;99581.27;1804232;77;21081;-69
2021/05/20 12:17:19;;;;;;;2.72;1.07;;;;;;;19.52;44.22;99570.86;1791860;77;21064;-67
2021/05/20 12:19:54;;;;;;;4.00;0.80;;;;;;;19.65;44.71;99577.56;1810106;78;21160;-68
2021/05/20 12:22:28;;;;;;;4.83;1.40;;;;;;;19.79;44.64;99593.97;1816786;78;21096;-67
2021/05/20 12:25:03;;;;;;;3.33;1.37;;;;;;;19.84;43.43;99603.52;1826277;78;21037;-69
2021/05/20 12:27:43;;;;;;;3.37;1.27;;;;;;;19.80;43.34;99596.11;1809217;78;21072;-68